Time;durP1;ratioP1;P1;durP2;ratioP2;P2;SDS_P1;SDS_P2;PMS_P1;PMS_P2;Temp;Humidity;BMP_temperature;BMP_pressure;BME280_temperature;BME280_humidity;BME280_pressure;Samples;Min_cycle;Max_cycle;Signal;HPM_P1;HPM_P2
2023/05/19 07:23:21;;;;;;;12.88;8.35;;;;;;;-145.79;57.44;78594.13;5240617;28;20902;-70
2023/05/19 07:25:55;;;;;;;11.45;9.00;;;;;;;-145.79;57.97;78583.53;5238486;28;20042;-70
2023/05/19 07:28:26;;;;;;;11.90;8.45;;;;;;;-145.79;57.55;78589.88;5237773;28;20025;-71
2023/05/19 07:30:57;;;;;;;14.02;8.55;;;;;;;-145.79;56.92;78564.44;5238601;28;20366;-70
2023/05/19 07:33:29;;;;;;;10.55;8.63;;;;;;;-145.79;56.88;78543.25;5225262;28;20026;-70
2023/05/19 07:36:00;;;;;;;11.40;7.70;;;;;;;-145.79;56.57;78534.75;5217413;28;20030;-70
2023/05/19 07:38:33;;;;;;;11.40;8.18;;;;;;;-145.79;55.80;78530.53;5218104;28;20612;-72
2023/05/19 07:41:04;;;;;;;9.73;7.43;;;;;;;-145.79;55.91;78505.06;5216713;28;20045;-74
2023/05/19 07:43:36;;;;;;;10.40;7.15;;;;;;;-145.79;56.62;78494.47;5217542;28;20393;-76
2023/05/19 07:46:07;;;;;;;14.20;7.28;;;;;;;-145.79;57.19;78483.88;5222178;28;20029;-69
2023/05/19 07:48:41;;;;;;;11.00;7.13;;;;;;;-145.79;55.56;78471.16;5239994;28;20029;-69
2023/05/19 07:51:13;;;;;;;11.88;8.57;;;;;;;-145.79;54.82;78454.19;5224704;28;20018;-68
2023/05/19 07:53:45;;;;;;;8.38;7.57;;;;;;;-145.79;54.99;78441.47;5234230;28;20030;-68
2023/05/19 07:56:17;;;;;;;11.75;7.10;;;;;;;-145.79;54.91;78422.38;5225721;28;20053;-69
2023/05/19 07:58:49;;;;;;;8.18;6.55;;;;;;;-145.79;55.22;78405.44;5237831;28;20402;-68
2023/05/19 08:01:20;;;;;;;11.73;7.72;;;;;;;-145.79;52.54;78418.16;5249121;28;20380;-69
2023/05/19 08:03:51;;;;;;;10.25;7.80;;;;;;;-145.79;52.48;78416.03;5257851;28;20530;-68
2023/05/19 08:06:24;;;;;;;11.82;8.23;;;;;;;-145.79;53.12;78411.78;5258409;28;20013;-68
2023/05/19 08:08:55;;;;;;;8.77;7.80;;;;;;;-145.79;52.18;78401.19;5257397;28;20392;-69
2023/05/19 08:11:26;;;;;;;9.48;6.18;;;;;;;-145.79;52.50;78377.88;5244774;28;20113;-69
2023/05/19 08:13:58;;;;;;;10.25;6.85;;;;;;;-145.79;52.24;78371.50;5234246;28;20038;-69
2023/05/19 08:16:29;;;;;;;12.13;7.20;;;;;;;-145.79;51.84;78360.91;5236804;28;20079;-69
2023/05/19 08:19:03;;;;;;;11.75;7.30;;;;;;;-145.79;50.86;78352.44;5237069;28;20060;-69
2023/05/19 08:21:35;;;;;;;11.38;6.85;;;;;;;-145.79;51.27;78339.69;5237444;28;20527;-69
2023/05/19 08:24:07;;;;;;;12.73;7.20;;;;;;;-145.79;51.19;78326.97;5236163;28;20018;-69
2023/05/19 08:26:39;;;;;;;9.10;6.82;;;;;;;-145.79;50.79;78312.13;5237368;28;20029;-69
2023/05/19 08:29:10;;;;;;;8.52;6.47;;;;;;;-145.79;50.86;78293.06;5226359;28;20026;-69
2023/05/19 08:31:41;;;;;;;9.98;5.85;;;;;;;-145.79;49.94;78282.47;5236495;28;20029;-69
2023/05/19 08:34:12;;;;;;;11.30;6.90;;;;;;;-145.79;49.47;78271.84;5220668;28;20026;-69
2023/05/19 08:36:44;;;;;;;9.48;6.82;;;;;;;-145.79;49.37;78259.13;5202952;28;20549;-69
2023/05/19 08:39:18;;;;;;;8.77;5.40;;;;;;;-145.79;49.87;78250.66;5202113;28;20049;-68
2023/05/19 08:41:49;;;;;;;8.35;6.15;;;;;;;-145.79;48.31;78233.69;5202776;28;20053;-69
2023/05/19 08:44:21;;;;;;;8.82;5.95;;;;;;;-145.79;47.77;78225.22;5202023;28;20022;-69
2023/05/19 08:46:54;;;;;;;9.93;5.78;;;;;;;-145.79;48.05;78223.09;5220529;28;20017;-69
2023/05/19 08:49:27;;;;;;;10.50;6.07;;;;;;;-145.79;48.30;78199.78;5223050;28;20025;-70
2023/05/19 08:52:27;;;;;;;8.88;6.05;;;;;;;-145.79;48.03;78167.97;5222353;28;20388;-69
2023/05/19 08:55:32;;;;;;;11.00;5.32;;;;;;;-145.79;46.55;78170.09;5222575;28;20132;-69
2023/05/19 08:58:03;;;;;;;7.20;5.00;;;;;;;-145.79;46.65;78167.97;5214857;28;20397;-69
2023/05/19 09:00:35;;;;;;;11.65;5.78;;;;;;;-145.79;45.78;78161.63;5222962;28;20018;-69
2023/05/19 09:03:06;;;;;;;10.48;5.20;;;;;;;-145.79;45.64;78140.41;5210993;28;20088;-69
2023/05/19 09:05:38;;;;;;;6.78;5.00;;;;;;;-145.79;45.37;78127.69;5201708;28;20110;-70
2023/05/19 09:08:09;;;;;;;6.75;4.43;;;;;;;-145.79;44.27;78114.97;5208344;28;20083;-68
2023/05/19 09:10:43;;;;;;;7.55;4.00;;;;;;;-145.79;43.40;78106.50;5214890;28;20058;-68
2023/05/19 09:13:15;;;;;;;8.95;4.45;;;;;;;-145.79;43.32;78095.91;5217300;28;20126;-68
2023/05/19 09:15:49;;;;;;;7.05;4.10;;;;;;;-145.79;43.10;78098.00;5218693;28;20101;-68
2023/05/19 09:18:20;;;;;;;6.28;4.05;;;;;;;-145.79;43.20;78110.72;5201920;28;20030;-68
2023/05/19 09:20:59;;;;;;;8.73;3.80;;;;;;;-145.79;43.19;78114.97;5208133;28;20404;-70
2023/05/19 09:23:32;;;;;;;6.20;3.30;;;;;;;-145.79;42.45;78108.63;5221469;28;20101;-71
2023/05/19 09:26:07;;;;;;;9.30;3.10;;;;;;;-145.79;41.50;78098.00;5218876;28;20116;-70
2023/05/19 09:28:39;;;;;;;8.18;3.30;;;;;;;-145.79;41.50;78085.28;5220265;28;20026;-70
2023/05/19 09:31:10;;;;;;;7.90;3.30;;;;;;;-145.79;41.24;78093.78;5222356;28;20366;-70
2023/05/19 09:33:42;;;;;;;9.18;3.75;;;;;;;-145.79;41.49;78074.69;5221438;28;20033;-70
2023/05/19 09:36:13;;;;;;;5.53;3.17;;;;;;;-145.79;41.54;78070.44;5217326;28;20077;-70
2023/05/19 09:38:44;;;;;;;5.95;2.40;;;;;;;-145.79;41.40;78057.72;5221617;28;20030;-67
2023/05/19 09:41:16;;;;;;;4.75;2.53;;;;;;;-145.79;39.99;78042.91;5214283;28;20048;-68
2023/05/19 09:43:54;;;;;;;4.20;2.60;;;;;;;-145.79;38.89;78042.91;5221688;28;20030;-67
2023/05/19 09:46:27;;;;;;;4.90;2.75;;;;;;;-145.79;39.03;78047.13;5219055;28;20028;-68
2023/05/19 09:48:59;;;;;;;7.15;2.70;;;;;;;-145.79;39.17;78051.38;5220869;28;20527;-69
2023/05/19 09:51:30;;;;;;;9.73;5.07;;;;;;;-145.79;39.53;78047.13;5220375;28;20061;-68
2023/05/19 09:54:03;;;;;;;5.82;2.90;;;;;;;-145.79;39.71;78051.38;5213793;28;20557;-68
2023/05/19 09:56:34;;;;;;;5.20;2.28;;;;;;;-145.79;38.97;78047.13;5217818;28;20838;-70
2023/05/19 09:59:06;;;;;;;9.52;3.58;;;;;;;-145.79;39.43;78042.91;5214696;28;20113;-69
2023/05/19 10:01:39;;;;;;;6.00;3.17;;;;;;;-145.79;39.48;78025.94;5200778;28;20036;-69
2023/05/19 10:04:13;;;;;;;7.55;2.80;;;;;;;-145.79;39.58;78030.19;5216991;28;20393;-69
2023/05/19 10:06:45;;;;;;;6.38;2.88;;;;;;;-145.79;39.31;78004.72;5220916;28;20022;-69
2023/05/19 10:09:16;;;;;;;26.50;20.02;;;;;;;-145.79;38.12;78017.44;5214426;28;20041;-69
2023/05/19 10:11:51;;;;;;;6.60;3.10;;;;;;;-145.79;38.72;77996.25;5205889;28;20117;-71
2023/05/19 10:14:27;;;;;;;7.05;2.65;;;;;;;-145.79;37.66;77977.19;5201079;28;20027;-71
2023/05/19 10:17:04;;;;;;;5.80;2.38;;;;;;;-145.79;37.49;77958.09;5212327;28;20034;-71
2023/05/19 10:19:36;;;;;;;4.93;2.22;;;;;;;-145.79;35.77;77947.50;5219931;28;20421;-71
2023/05/19 10:22:10;;;;;;;3.97;2.30;;;;;;;-145.79;36.27;77934.78;5206826;28;20058;-71
2023/05/19 10:24:42;;;;;;;9.00;3.33;;;;;;;-145.79;36.90;77909.34;5219857;28;20037;-68
2023/05/19 10:27:14;;;;;;;6.18;2.70;;;;;;;-145.79;37.66;77905.09;5202168;28;20081;-68
2023/05/19 10:29:49;;;;;;;5.35;2.25;;;;;;;-145.79;37.10;77911.47;5208982;28;20036;-68
2023/05/19 10:32:25;;;;;;;6.57;2.67;;;;;;;-145.79;37.02;77941.13;5221138;28;20100;-68
2023/05/19 10:35:27;;;;;;;4.97;2.72;;;;;;;-145.79;38.77;77941.13;5206401;28;20477;-68
2023/05/19 10:38:11;;;;;;;9.10;4.78;;;;;;;-145.79;38.10;77928.41;5200320;28;20476;-68
2023/05/19 10:40:53;;;;;;;9.52;3.03;;;;;;;-145.79;38.20;77915.69;5200561;28;20424;-69
2023/05/19 10:43:47;;;;;;;10.50;2.97;;;;;;;-145.79;38.37;77907.22;5200004;28;20452;-69
2023/05/19 10:46:23;;;;;;;6.65;3.25;;;;;;;-145.79;37.77;77902.97;5205313;28;20436;-68
2023/05/19 10:48:55;;;;;;;11.95;7.93;;;;;;;-145.79;37.69;77898.75;5200142;28;20026;-68
2023/05/19 10:51:30;;;;;;;6.68;3.38;;;;;;;-145.79;37.71;77909.34;5200065;28;20037;-70
2023/05/19 10:54:14;;;;;;;7.53;3.05;;;;;;;-145.79;38.44;77915.69;5200242;28;20030;-67
2023/05/19 10:56:46;;;;;;;6.68;3.47;;;;;;;-145.79;37.88;77917.81;5200059;28;20084;-67
2023/05/19 10:59:32;;;;;;;5.15;2.67;;;;;;;-145.79;37.69;77886.00;5199489;28;20034;-66
2023/05/19 11:02:04;;;;;;;8.32;3.00;;;;;;;-145.79;37.58;77900.84;5201224;28;20153;-69
2023/05/19 11:04:51;;;;;;;7.43;3.80;;;;;;;-145.79;38.03;77900.84;5219821;28;20052;-67
2023/05/19 11:07:23;;;;;;;6.88;3.38;;;;;;;-145.79;38.10;77879.66;5220635;28;20473;-67
2023/05/19 11:09:54;;;;;;;7.75;2.63;;;;;;;-145.79;37.04;77875.41;5220486;28;20392;-67
2023/05/19 11:12:26;;;;;;;5.65;2.83;;;;;;;-145.79;37.23;77841.50;5202480;28;20030;-68
2023/05/19 11:14:58;;;;;;;8.60;3.20;;;;;;;-145.79;36.20;77822.41;5220466;28;20034;-68
2023/05/19 11:17:29;;;;;;;4.80;3.05;;;;;;;-145.79;36.49;77796.97;5220639;28;20022;-67
2023/05/19 11:20:01;;;;;;;4.00;2.58;;;;;;;-145.79;36.42;77801.22;5208467;28;20500;-68
2023/05/19 11:22:34;;;;;;;6.47;3.38;;;;;;;-145.79;36.86;77786.38;5220281;28;20049;-68
2023/05/19 11:25:06;;;;;;;6.07;2.70;;;;;;;-145.79;35.42;77788.50;5200187;28;20267;-68
2023/05/19 11:27:38;;;;;;;7.32;2.83;;;;;;;-145.79;35.13;77773.66;5199497;28;20374;-68
2023/05/19 11:30:13;;;;;;;4.75;2.60;;;;;;;-145.79;34.55;77750.34;5212689;28;20081;-68
2023/05/19 11:32:46;;;;;;;12.82;6.75;;;;;;;-145.79;34.53;77754.59;5219389;28;20102;-68
2023/05/19 11:35:19;;;;;;;5.45;2.90;;;;;;;-145.79;33.70;77771.53;5214418;28;20048;-68
2023/05/19 11:37:53;;;;;;;6.18;2.60;;;;;;;-145.79;34.19;77756.72;5200612;28;20038;-68
2023/05/19 11:40:25;;;;;;;8.23;3.30;;;;;;;-145.79;34.34;77733.38;5198778;28;20054;-68
2023/05/19 11:42:57;;;;;;;6.15;2.38;;;;;;;-145.79;35.08;77735.50;5199724;28;20022;-67
2023/05/19 11:45:30;;;;;;;6.45;2.40;;;;;;;-145.79;34.45;77731.28;5206648;28;20014;-68
2023/05/19 11:48:02;;;;;;;6.03;2.25;;;;;;;-145.79;33.82;77733.38;5219668;28;20393;-68
2023/05/19 11:50:36;;;;;;;6.80;2.40;;;;;;;-145.79;33.92;77712.19;5220002;28;20084;-68
2023/05/19 11:53:11;;;;;;;5.82;2.58;;;;;;;-145.79;35.07;77699.47;5208542;28;20077;-68
2023/05/19 11:55:46;;;;;;;7.75;3.33;;;;;;;-145.79;34.47;77697.34;5219113;28;20113;-68
2023/05/19 11:58:24;;;;;;;6.30;2.70;;;;;;;-145.79;34.03;77695.22;5220184;28;20121;-68
2023/05/19 12:00:55;;;;;;;6.20;3.38;;;;;;;-145.79;34.14;77682.50;5205951;28;20105;-69
2023/05/19 12:03:27;;;;;;;11.75;6.63;;;;;;;-145.79;34.01;77703.72;5199720;28;20117;-68
2023/05/19 12:05:58;;;;;;;5.93;2.50;;;;;;;-145.79;34.99;77684.63;5199497;28;20358;-68
2023/05/19 12:08:29;;;;;;;7.57;2.90;;;;;;;-145.79;34.30;77678.28;5200045;28;20385;-68
2023/05/19 12:11:01;;;;;;;4.43;2.67;;;;;;;-145.79;34.33;77669.78;5212710;28;20420;-68
2023/05/19 12:13:32;;;;;;;4.50;2.42;;;;;;;-145.79;33.81;77652.84;5223804;28;20504;-68
2023/05/19 12:16:04;;;;;;;7.40;3.00;;;;;;;-145.79;33.70;77659.19;5222600;28;20037;-67
2023/05/19 12:18:36;;;;;;;7.35;2.95;;;;;;;-145.79;33.77;77648.59;5223731;28;20080;-67
2023/05/19 12:21:08;;;;;;;7.07;3.30;;;;;;;-145.79;33.97;77621.03;5223229;28;20377;-68
2023/05/19 12:23:41;;;;;;;6.07;3.10;;;;;;;-145.79;33.62;77606.19;5222632;28;20026;-67
2023/05/19 12:26:12;;;;;;;6.03;2.88;;;;;;;-145.79;34.54;77599.84;5217853;28;20037;-67
2023/05/19 12:28:44;;;;;;;7.45;3.25;;;;;;;-145.79;33.82;77612.56;5203785;28;20377;-67
2023/05/19 12:31:16;;;;;;;10.60;4.07;;;;;;;-145.79;33.82;77601.97;5211106;28;20029;-67
2023/05/19 12:33:51;;;;;;;5.22;2.92;;;;;;;-145.79;33.54;77585.00;5223853;28;20034;-67
2023/05/19 12:36:23;;;;;;;7.57;3.10;;;;;;;-145.79;33.90;77565.94;5222784;28;20080;-67
2023/05/19 12:38:55;;;;;;;8.18;2.95;;;;;;;-145.79;33.71;77597.72;5223664;28;20032;-67
2023/05/19 12:41:28;;;;;;;4.63;2.72;;;;;;;-145.79;33.99;77587.13;5222999;28;20026;-69
2023/05/19 12:43:59;;;;;;;6.35;2.90;;;;;;;-145.79;33.87;77578.66;5220321;28;20045;-68
2023/05/19 12:46:34;;;;;;;9.43;5.53;;;;;;;-145.79;33.24;77565.94;5222203;28;20080;-66
2023/05/19 12:49:05;;;;;;;5.32;3.03;;;;;;;-145.79;32.82;77557.44;5223279;28;20030;-66
2023/05/19 12:51:36;;;;;;;13.68;9.48;;;;;;;-145.79;33.26;77515.06;5210087;28;20027;-66
2023/05/19 12:54:08;;;;;;;6.38;2.90;;;;;;;-145.79;33.28;77504.47;5222720;28;20130;-65
2023/05/19 12:56:48;;;;;;;4.70;2.50;;;;;;;-145.79;34.04;77468.41;5208530;28;20125;-65
2023/05/19 12:59:24;;;;;;;7.18;2.88;;;;;;;-145.79;33.35;77504.47;5205465;28;20030;-65
2023/05/19 13:01:56;;;;;;;7.57;2.53;;;;;;;-145.79;33.45;77489.63;5211975;28;20031;-65
2023/05/19 13:15:07;;;;;;;6.53;3.25;;;;;;;-145.79;32.46;77470.53;5196590;28;20481;-68
2023/05/19 13:17:38;;;;;;;6.57;2.67;;;;;;;-145.79;32.01;77495.97;5217692;28;20492;-68
2023/05/19 13:20:10;;;;;;;7.07;2.70;;;;;;;-145.79;32.44;77500.22;5217937;28;20049;-68
2023/05/19 13:22:42;;;;;;;4.30;2.40;;;;;;;-145.79;32.42;77495.97;5220823;28;20049;-68
2023/05/19 13:25:13;;;;;;;7.13;3.40;;;;;;;-145.79;33.23;77445.09;5218657;28;20034;-67
2023/05/19 13:27:46;;;;;;;5.07;2.72;;;;;;;-145.79;32.04;77453.59;5214623;28;20033;-68
2023/05/19 13:30:17;;;;;;;8.88;3.10;;;;;;;-145.79;32.67;77436.63;5220369;28;20053;-68
2023/05/19 13:32:51;;;;;;;8.95;6.50;;;;;;;-145.79;32.39;77421.78;5221255;28;20045;-68
2023/05/19 13:35:22;;;;;;;6.70;2.95;;;;;;;-145.79;32.77;77400.59;5208162;28;20080;-68
2023/05/19 13:37:53;;;;;;;5.40;2.47;;;;;;;-145.79;32.28;77398.47;5221910;28;20034;-68
2023/05/19 13:40:26;;;;;;;5.60;3.83;;;;;;;-145.79;32.08;77417.53;5221306;28;20481;-68
2023/05/19 13:42:58;;;;;;;8.35;2.60;;;;;;;-145.79;31.75;77394.22;5221798;28;20034;-68
2023/05/19 13:45:29;;;;;;;6.00;3.20;;;;;;;-145.79;32.29;77413.31;5221470;28;20026;-69
2023/05/19 13:48:01;;;;;;;6.78;3.63;;;;;;;-145.79;31.97;77415.44;5202808;28;20056;-69
2023/05/19 13:50:33;;;;;;;8.93;3.53;;;;;;;-145.79;31.78;77385.75;5209326;28;20030;-68
2023/05/19 13:53:04;;;;;;;6.53;2.60;;;;;;;-145.79;31.24;77366.69;5210668;28;20040;-68
2023/05/19 13:55:35;;;;;;;6.05;2.35;;;;;;;-145.79;31.46;77356.06;5213045;28;20032;-68
2023/05/19 13:58:09;;;;;;;9.50;2.58;;;;;;;-145.79;32.00;77337.00;5221620;28;20037;-67
2023/05/19 14:00:41;;;;;;;8.35;3.90;;;;;;;-145.79;31.55;77343.38;5203875;28;20424;-67
2023/05/19 14:03:14;;;;;;;7.05;3.60;;;;;;;-145.79;31.59;77330.66;5221113;28;20465;-67
2023/05/19 14:05:49;;;;;;;8.85;2.72;;;;;;;-145.79;32.32;77351.84;5219824;28;20446;-67
2023/05/19 14:08:20;;;;;;;4.60;2.78;;;;;;;-145.79;32.03;77339.13;5214783;28;20437;-67
2023/05/19 14:10:54;;;;;;;7.03;3.28;;;;;;;-145.79;31.87;77351.84;5216837;28;20034;-67
2023/05/19 14:13:26;;;;;;;5.93;2.60;;;;;;;-145.79;31.59;77347.59;5220575;28;20033;-67
2023/05/19 14:15:57;;;;;;;5.78;2.53;;;;;;;-145.79;31.65;77334.88;5218666;28;20080;-67
2023/05/19 14:18:29;;;;;;;6.82;4.07;;;;;;;-145.79;31.45;77328.53;5220507;28;20029;-67
2023/05/19 14:21:01;;;;;;;7.07;3.25;;;;;;;-145.79;31.41;77326.41;5202417;28;20072;-67
2023/05/19 14:23:32;;;;;;;8.35;2.85;;;;;;;-145.79;31.47;77324.28;5207294;28;20065;-67
2023/05/19 14:26:06;;;;;;;7.93;2.72;;;;;;;-145.79;31.39;77339.13;5209263;28;20057;-69
2023/05/19 14:28:37;;;;;;;6.53;3.15;;;;;;;-145.79;31.27;77330.66;5217444;28;20498;-68
2023/05/19 14:31:12;;;;;;;8.60;2.70;;;;;;;-145.79;32.48;77313.69;5220394;28;20034;-68
2023/05/19 14:33:43;;;;;;;7.03;3.20;;;;;;;-145.79;31.61;77292.50;5204734;28;20113;-68
2023/05/19 14:36:14;;;;;;;7.88;3.40;;;;;;;-145.79;31.07;77284.00;5201485;28;20220;-68
2023/05/19 14:38:46;;;;;;;5.60;2.80;;;;;;;-145.79;31.08;77267.06;5200632;28;20022;-68
2023/05/19 14:41:17;;;;;;;8.73;6.35;;;;;;;-145.79;31.01;77271.28;5205575;28;20045;-68
2023/05/19 14:43:48;;;;;;;7.55;6.03;;;;;;;-145.79;31.83;77273.41;5217803;28;20025;-68
2023/05/19 14:46:20;;;;;;;9.23;3.78;;;;;;;-145.79;31.28;77284.00;5220081;28;20026;-72
2023/05/19 14:48:51;;;;;;;5.22;2.78;;;;;;;-145.79;31.30;77296.72;5220381;28;20038;-70
2023/05/19 14:51:22;;;;;;;7.50;3.00;;;;;;;-145.79;31.78;77292.50;5219562;28;20038;-71
2023/05/19 14:53:54;;;;;;;7.93;2.78;;;;;;;-145.79;31.70;77275.53;5220143;28;20021;-71
2023/05/19 14:56:25;;;;;;;5.10;3.17;;;;;;;-145.79;31.66;77279.78;5202518;28;20482;-69
2023/05/19 14:58:57;;;;;;;5.82;3.60;;;;;;;-145.79;31.61;77267.06;5199075;28;20621;-68
2023/05/19 15:01:28;;;;;;;7.78;3.05;;;;;;;-145.79;31.76;77292.50;5212636;28;20029;-68
2023/05/19 15:04:00;;;;;;;6.13;3.33;;;;;;;-145.79;31.45;77305.22;5211843;28;20022;-67
2023/05/19 15:06:31;;;;;;;7.57;3.03;;;;;;;-145.79;32.05;77303.09;5213234;28;20022;-67
2023/05/19 15:09:02;;;;;;;6.53;2.83;;;;;;;-145.79;31.73;77288.25;5220822;28;20064;-68
2023/05/19 15:11:34;;;;;;;7.28;2.83;;;;;;;-145.79;31.80;77303.09;5218962;28;20030;-69
2023/05/19 15:14:05;;;;;;;7.40;3.80;;;;;;;-145.79;32.06;77317.94;5220108;28;20056;-68
2023/05/19 15:16:39;;;;;;;6.20;3.33;;;;;;;-145.79;32.19;77322.16;5211896;28;20022;-68
2023/05/19 15:19:11;;;;;;;6.10;3.80;;;;;;;-145.79;32.40;77322.16;5206346;28;20045;-69
2023/05/19 15:21:44;;;;;;;6.38;3.03;;;;;;;-145.79;31.89;77353.97;5219897;28;20046;-69
2023/05/19 15:24:15;;;;;;;6.05;2.72;;;;;;;-145.79;31.86;77330.66;5213813;28;20030;-68
2023/05/19 15:26:47;;;;;;;6.25;3.40;;;;;;;-145.79;32.21;77326.41;5199462;28;20019;-68
2023/05/19 15:29:18;;;;;;;6.10;2.80;;;;;;;-145.79;31.96;77328.53;5201363;28;20473;-68
2023/05/19 15:31:50;;;;;;;5.07;2.78;;;;;;;-145.79;32.07;77353.97;5199288;28;20049;-69
2023/05/19 15:34:21;;;;;;;6.45;2.75;;;;;;;-145.79;31.58;77349.72;5203201;28;20041;-69
2023/05/19 15:36:53;;;;;;;4.90;2.65;;;;;;;-145.79;32.45;77337.00;5220450;28;20026;-69
2023/05/19 15:39:24;;;;;;;7.15;2.60;;;;;;;-145.79;31.80;77343.38;5219112;28;20022;-69
2023/05/19 15:41:56;;;;;;;6.15;2.70;;;;;;;-145.79;32.03;77343.38;5220383;28;20481;-70
2023/05/19 15:44:30;;;;;;;6.05;2.92;;;;;;;-145.79;32.14;77334.88;5211809;28;20029;-69
2023/05/19 15:47:01;;;;;;;11.07;3.42;;;;;;;-145.79;32.11;77337.00;5222858;28;20461;-69
2023/05/19 15:49:33;;;;;;;6.57;3.67;;;;;;;-145.79;31.57;77326.41;5217976;28;20084;-69
2023/05/19 15:52:04;;;;;;;6.45;2.70;;;;;;;-145.79;31.62;77334.88;5221460;28;20481;-68
2023/05/19 15:54:36;;;;;;;6.88;2.72;;;;;;;-145.79;32.03;77315.81;5222745;28;20026;-68
2023/05/19 15:57:07;;;;;;;7.13;3.20;;;;;;;-145.79;31.76;77309.44;5224035;28;20049;-69
2023/05/19 15:59:38;;;;;;;6.32;2.72;;;;;;;-145.79;31.61;77343.38;5223830;28;20076;-69
2023/05/19 16:02:13;;;;;;;5.80;2.65;;;;;;;-145.79;31.73;77339.13;5208974;28;20062;-69
2023/05/19 16:04:44;;;;;;;3.95;2.70;;;;;;;-145.79;31.98;77324.28;5223227;28;20072;-69
2023/05/19 16:07:17;;;;;;;7.13;2.50;;;;;;;-145.79;31.70;77334.88;5221516;28;20584;-69
2023/05/19 16:09:48;;;;;;;9.88;3.90;;;;;;;-145.79;31.72;77356.06;5215603;28;20105;-69
2023/05/19 16:12:20;;;;;;;5.90;2.90;;;;;;;-145.79;31.90;77347.59;5221574;28;20105;-69
2023/05/19 16:14:51;;;;;;;6.25;2.63;;;;;;;-145.79;31.88;77317.94;5218129;28;20484;-69
2023/05/19 16:17:23;;;;;;;13.27;9.10;;;;;;;-145.79;31.64;77320.03;5221458;28;20028;-71
2023/05/19 16:19:55;;;;;;;7.50;3.65;;;;;;;-145.79;32.67;77313.69;5223895;28;20083;-74
2023/05/19 16:22:26;;;;;;;7.60;3.03;;;;;;;-145.79;32.16;77296.72;5222590;28;20050;-72
2023/05/19 16:24:57;;;;;;;6.68;2.72;;;;;;;-145.79;31.81;77315.81;5212150;28;20084;-72
2023/05/19 16:27:29;;;;;;;7.85;2.40;;;;;;;-145.79;31.60;77303.09;5228733;28;20026;-72
2023/05/19 16:30:01;;;;;;;5.90;2.63;;;;;;;-145.79;31.75;77313.69;5231413;28;20025;-71
2023/05/19 16:32:32;;;;;;;5.85;3.35;;;;;;;-145.79;31.82;77305.22;5223868;28;20022;-72
2023/05/19 16:35:04;;;;;;;8.32;2.67;;;;;;;-145.79;31.89;77290.38;5221901;28;20037;-72
2023/05/19 16:37:35;;;;;;;6.10;2.92;;;;;;;-145.79;31.65;77267.06;5223328;28;20022;-71
2023/05/19 16:40:07;;;;;;;6.38;3.42;;;;;;;-145.79;31.98;77262.81;5223484;28;20504;-72
2023/05/19 16:42:38;;;;;;;5.70;2.60;;;;;;;-145.79;31.50;77233.16;5206334;28;20022;-71
2023/05/19 16:45:10;;;;;;;5.57;3.13;;;;;;;-145.79;31.41;77216.19;5202859;28;20465;-72
2023/05/19 16:47:42;;;;;;;6.22;2.90;;;;;;;-145.79;31.63;77211.94;5202960;28;20030;-71
2023/05/19 16:50:14;;;;;;;5.15;2.72;;;;;;;-145.79;30.82;77226.78;5201952;28;20022;-71
2023/05/19 16:52:46;;;;;;;4.68;2.55;;;;;;;-145.79;30.40;77222.53;5221772;28;20026;-72
